KTSP/TSP METAR and TAF weather

Enter ICAO airport designator
Station Type Date Time Source
KTSP METAR 2022/11/30 10:15 UTC NOAA

KTSP 301015Z AUTO 13010KT 10SM CLR 00/M07 A3002 RMK AO2


Station Type Date Time Source
KTSP Decoded METAR 2022/11/30 10:15 UTC NOAA

Station name not available
Nov 30, 2022 - 05:15 AM EST / 2022.11.30 1015 UTC
Wind: from the SE (130 degrees) at 12 MPH (10 KT):0
Visibility: 10 mile(s):0
Sky conditions: clear
Temperature: 32 F (0 C)
Windchill: 23 F (-5 C):1
Dew Point: 19 F (-7 C)
Relative Humidity: 59%
Pressure (altimeter): 30.02 in. Hg (1016 hPa)
ob: KTSP 301015Z AUTO 13010KT 10SM CLR 00/M07 A3002 RMK AO2
cycle: 10

Station Type Date Time Source
KTSP TAF UTC NOAA

Error!

Example: see airport list